createdAt,value
2022-08-26T00:01:56.685Z,83.88
2022-08-26T00:04:26.154Z,83.82
2022-08-26T00:06:56.649Z,83.62
2022-08-26T00:09:25.460Z,83.12
2022-08-26T00:11:54.457Z,82.72
2022-08-26T00:14:28.284Z,83.12
2022-08-26T00:16:57.934Z,84.33
2022-08-26T00:19:25.603Z,85.00
2022-08-26T00:21:52.938Z,84.40
2022-08-26T00:24:21.902Z,84.48
2022-08-26T00:26:50.055Z,84.59
2022-08-26T00:29:19.748Z,84.08
2022-08-26T00:31:49.329Z,83.01
2022-08-26T00:34:19.434Z,83.40
2022-08-26T00:36:49.361Z,83.79
2022-08-26T00:39:20.989Z,83.83
2022-08-26T00:41:48.825Z,83.54
2022-08-26T00:44:17.204Z,83.92
2022-08-26T00:47:01.152Z,83.88
2022-08-26T00:49:38.117Z,83.28
2022-08-26T00:52:09.688Z,83.32
2022-08-26T00:54:47.031Z,82.98
2022-08-26T00:57:17.880Z,82.65
2022-08-26T00:59:47.836Z,83.46
2022-08-26T01:02:21.246Z,82.70
2022-08-26T01:04:55.733Z,82.67
2022-08-26T01:07:30.116Z,83.31
2022-08-26T01:10:01.306Z,83.31
2022-08-26T01:12:34.001Z,82.61
2022-08-26T01:15:02.642Z,82.43
2022-08-26T01:17:30.587Z,82.31
2022-08-26T01:20:12.767Z,82.17
2022-08-26T01:22:53.481Z,82.60
2022-08-26T01:25:23.147Z,82.44
2022-08-26T01:27:52.673Z,81.98
2022-08-26T01:30:21.257Z,81.88
2022-08-26T01:32:50.642Z,82.69
2022-08-26T01:35:19.856Z,83.03
2022-08-26T01:37:48.961Z,82.60
2022-08-26T01:40:19.107Z,82.75
2022-08-26T01:42:49.264Z,83.35
2022-08-26T01:45:25.450Z,83.63
2022-08-26T01:47:57.367Z,84.06
2022-08-26T01:50:33.201Z,83.75
2022-08-26T01:53:06.284Z,84.23
2022-08-26T01:55:35.366Z,84.64
2022-08-26T01:58:08.326Z,84.70
2022-08-26T02:00:36.546Z,84.19
2022-08-26T02:03:17.210Z,83.97
2022-08-26T02:05:51.464Z,84.18
2022-08-26T02:08:24.801Z,84.10
2022-08-26T02:10:54.902Z,85.29
2022-08-26T02:13:23.412Z,85.31
2022-08-26T02:15:53.417Z,84.46
2022-08-26T02:18:22.852Z,85.15
2022-08-26T02:20:53.266Z,85.85
2022-08-26T02:23:20.923Z,86.34
2022-08-26T02:26:09.181Z,85.91
2022-08-26T02:28:46.596Z,84.76
2022-08-26T02:31:14.125Z,85.84
2022-08-26T02:33:43.305Z,84.36
2022-08-26T02:36:10.690Z,84.89
2022-08-26T02:38:40.708Z,86.31
2022-08-26T02:41:11.426Z,86.27
2022-08-26T02:43:38.737Z,86.03
2022-08-26T02:46:06.716Z,85.83
2022-08-26T02:48:34.419Z,86.33
2022-08-26T02:51:03.303Z,86.12
2022-08-26T02:53:31.754Z,86.67
2022-08-26T02:55:59.762Z,87.51
2022-08-26T02:58:27.416Z,87.72
2022-08-26T03:00:54.878Z,89.25
2022-08-26T03:03:23.717Z,88.13
2022-08-26T03:05:52.370Z,89.32
2022-08-26T03:08:20.116Z,88.11
2022-08-26T03:10:48.165Z,86.96
2022-08-26T03:13:17.123Z,87.12
2022-08-26T03:15:45.910Z,87.05
2022-08-26T03:18:16.343Z,87.12
2022-08-26T03:20:43.974Z,87.56
2022-08-26T03:23:13.258Z,87.38
2022-08-26T03:25:41.190Z,87.06
2022-08-26T03:28:09.631Z,87.28
2022-08-26T03:30:44.924Z,87.34
2022-08-26T03:33:14.146Z,87.24
2022-08-26T03:35:43.660Z,86.94
2022-08-26T03:38:11.565Z,87.15
2022-08-26T03:40:40.202Z,88.06
2022-08-26T03:43:10.081Z,87.42
2022-08-26T03:45:38.505Z,87.96
2022-08-26T03:48:06.271Z,88.14
2022-08-26T03:50:35.675Z,87.86
2022-08-26T03:53:04.269Z,88.11
2022-08-26T03:55:35.122Z,88.50
2022-08-26T03:58:02.792Z,87.88
2022-08-26T04:00:31.242Z,87.57
2022-08-26T04:02:59.110Z,88.01
2022-08-26T04:05:27.092Z,87.81
2022-08-26T04:07:56.148Z,87.88
2022-08-26T04:10:28.422Z,87.78
2022-08-26T04:12:58.796Z,88.25
2022-08-26T04:15:27.295Z,88.16
2022-08-26T04:17:56.094Z,88.85
2022-08-26T04:20:26.183Z,88.19
2022-08-26T04:22:54.035Z,88.89
2022-08-26T04:25:22.663Z,88.58
2022-08-26T04:27:51.871Z,89.55
2022-08-26T04:30:20.289Z,89.47
2022-08-26T04:32:49.522Z,89.34
2022-08-26T04:35:17.016Z,89.83
2022-08-26T04:37:44.938Z,89.13
2022-08-26T04:40:12.648Z,88.96
2022-08-26T04:42:40.140Z,88.59
2022-08-26T04:45:10.015Z,88.97
2022-08-26T04:47:38.304Z,88.39
2022-08-26T04:50:07.485Z,86.84
2022-08-26T04:52:36.879Z,87.60
2022-08-26T04:55:06.021Z,86.77
2022-08-26T04:57:34.156Z,87.04
2022-08-26T05:00:02.594Z,87.79
2022-08-26T05:02:31.732Z,87.19
2022-08-26T05:05:00.242Z,87.29
2022-08-26T05:07:27.957Z,87.47
2022-08-26T05:09:55.561Z,88.05
2022-08-26T05:12:23.506Z,87.37
2022-08-26T05:14:51.502Z,87.80
2022-08-26T05:17:19.336Z,87.75
2022-08-26T05:19:47.433Z,88.70
2022-08-26T05:22:15.355Z,88.23
2022-08-26T05:24:46.597Z,88.14
2022-08-26T05:27:15.469Z,86.03
2022-08-26T05:29:42.991Z,86.09
2022-08-26T05:32:12.181Z,85.80
2022-08-26T05:34:40.019Z,85.64
2022-08-26T05:37:10.452Z,85.26
2022-08-26T05:39:41.405Z,85.19
2022-08-26T05:42:11.182Z,85.79
2022-08-26T05:44:54.148Z,87.34
2022-08-26T05:47:25.744Z,86.91
2022-08-26T05:49:53.481Z,86.35
2022-08-26T05:52:20.836Z,86.22
2022-08-26T05:54:48.711Z,85.95
2022-08-26T05:57:16.422Z,86.24
2022-08-26T05:59:46.013Z,87.80
2022-08-26T06:02:13.741Z,87.95
2022-08-26T06:04:41.660Z,88.15
2022-08-26T06:07:11.730Z,88.01
2022-08-26T06:09:39.821Z,87.82
2022-08-26T06:12:07.781Z,86.53
2022-08-26T06:14:36.200Z,85.93
2022-08-26T06:17:04.425Z,85.10
2022-08-26T06:19:32.875Z,85.77
2022-08-26T06:22:23.477Z,87.29
2022-08-26T06:25:10.123Z,85.90
2022-08-26T06:27:37.648Z,84.97
2022-08-26T06:30:05.799Z,84.09
2022-08-26T06:32:33.725Z,86.52
2022-08-26T06:35:01.588Z,86.39
2022-08-26T06:37:29.328Z,85.97
2022-08-26T06:39:56.812Z,85.24
2022-08-26T06:42:25.106Z,83.92
2022-08-26T06:44:52.923Z,84.62
2022-08-26T06:47:20.715Z,83.60
2022-08-26T06:49:48.566Z,81.63
2022-08-26T06:52:23.055Z,80.50
2022-08-26T06:54:51.953Z,80.32
2022-08-26T06:57:20.774Z,82.37
2022-08-26T06:59:48.718Z,83.12
2022-08-26T07:02:18.893Z,82.07
2022-08-26T07:04:47.837Z,82.41
2022-08-26T07:07:15.568Z,81.44
2022-08-26T07:09:42.929Z,81.59
2022-08-26T07:12:10.766Z,82.35
2022-08-26T07:14:38.483Z,81.17
2022-08-26T07:17:10.061Z,81.53
2022-08-26T07:19:39.986Z,80.34
2022-08-26T07:22:08.776Z,79.20
2022-08-26T07:24:40.461Z,79.22
2022-08-26T07:27:13.796Z,79.52
2022-08-26T07:29:43.628Z,80.46
2022-08-26T07:32:14.209Z,80.83
2022-08-26T07:34:43.228Z,82.79
2022-08-26T07:37:12.101Z,83.47
2022-08-26T07:39:41.813Z,83.04
2022-08-26T07:42:14.108Z,82.77
2022-08-26T07:44:43.540Z,81.63
2022-08-26T07:47:25.096Z,81.56
2022-08-26T07:49:55.869Z,81.15
2022-08-26T07:52:27.027Z,80.02
2022-08-26T07:54:56.632Z,79.42
2022-08-26T07:57:25.221Z,78.29
2022-08-26T07:59:55.046Z,78.79
2022-08-26T08:02:23.796Z,78.07
2022-08-26T08:04:52.486Z,76.17
2022-08-26T08:07:20.350Z,74.52
2022-08-26T08:09:49.823Z,68.54
2022-08-26T08:12:19.362Z,68.78
2022-08-26T08:14:47.256Z,63.59
2022-08-26T08:17:16.576Z,57.90
2022-08-26T08:19:44.537Z,59.78
2022-08-26T08:22:17.436Z,56.60
2022-08-26T08:24:49.722Z,56.78
2022-08-26T08:27:23.869Z,57.83
2022-08-26T08:29:54.969Z,53.76
2022-08-26T08:32:24.115Z,53.74
2022-08-26T08:34:51.872Z,52.66
2022-08-26T08:37:19.262Z,53.39
2022-08-26T08:39:46.705Z,48.97
2022-08-26T08:42:31.605Z,48.96
2022-08-26T08:45:04.192Z,46.40
2022-08-26T08:47:47.540Z,43.05
2022-08-26T08:50:14.864Z,42.76
2022-08-26T08:52:45.288Z,46.20
2022-08-26T08:55:18.024Z,41.58
2022-08-26T08:58:07.957Z,40.76
2022-08-26T09:00:51.937Z,41.54
2022-08-26T09:03:55.117Z,40.17
2022-08-26T09:06:22.556Z,43.31
2022-08-26T09:08:51.528Z,42.02
2022-08-26T09:11:22.555Z,39.27
2022-08-26T09:13:56.740Z,40.94
2022-08-26T09:16:41.974Z,38.69
2022-08-26T09:19:33.873Z,41.36
2022-08-26T09:22:05.795Z,37.47
2022-08-26T09:24:42.124Z,37.85
2022-08-26T09:27:37.920Z,40.01
2022-08-26T09:30:11.525Z,38.48
2022-08-26T09:32:40.672Z,37.13
2022-08-26T09:35:11.090Z,35.34
2022-08-26T09:40:27.110Z,36.02
2022-08-26T09:43:23.201Z,35.69
2022-08-26T09:46:10.342Z,39.47
2022-08-26T09:51:35.744Z,36.85
2022-08-26T09:54:08.232Z,35.12
2022-08-26T09:56:39.197Z,34.53
2022-08-26T09:59:11.703Z,32.32
2022-08-26T10:01:44.732Z,33.94
2022-08-26T10:04:26.773Z,33.71
2022-08-26T10:07:07.414Z,35.00
2022-08-26T10:09:40.921Z,37.64
2022-08-26T10:12:15.521Z,33.53
2022-08-26T10:14:57.964Z,33.60
2022-08-26T10:17:32.389Z,36.73
2022-08-26T10:20:23.543Z,36.32
2022-08-26T10:23:00.635Z,34.69
2022-08-26T10:25:45.021Z,36.35
2022-08-26T10:28:31.531Z,33.76
2022-08-26T10:31:12.997Z,35.07
2022-08-26T10:33:40.511Z,33.58
2022-08-26T10:36:39.330Z,35.93
2022-08-26T10:39:24.616Z,34.07
2022-08-26T10:41:56.833Z,33.55
2022-08-26T10:44:25.813Z,32.87
2022-08-26T10:47:03.812Z,35.42
2022-08-26T10:49:32.588Z,33.69
2022-08-26T10:52:29.437Z,32.17
2022-08-26T10:55:05.553Z,31.74
2022-08-26T10:57:57.603Z,32.61
2022-08-26T11:00:53.621Z,32.03
2022-08-26T11:03:35.907Z,34.59
2022-08-26T11:06:37.090Z,32.15
2022-08-26T11:09:09.216Z,31.54
2022-08-26T11:11:46.900Z,31.28
2022-08-26T11:14:29.041Z,31.04
2022-08-26T11:16:58.927Z,32.44
2022-08-26T11:19:58.962Z,29.82
2022-08-26T11:22:32.819Z,31.35
2022-08-26T11:25:06.833Z,31.43
2022-08-26T11:27:37.515Z,29.81
2022-08-26T11:30:27.931Z,30.89
2022-08-26T11:32:59.040Z,32.53
2022-08-26T11:35:34.905Z,30.21
2022-08-26T11:38:28.713Z,28.80
2022-08-26T11:41:10.845Z,28.86
2022-08-26T11:43:40.839Z,29.40
2022-08-26T11:46:12.277Z,30.60
2022-08-26T11:48:42.564Z,29.97
2022-08-26T11:51:16.362Z,28.77
2022-08-26T11:53:47.231Z,29.87
2022-08-26T11:56:28.861Z,33.18
2022-08-26T11:59:03.239Z,29.17
2022-08-26T12:01:35.781Z,32.74
2022-08-26T12:04:10.913Z,28.27
2022-08-26T12:06:53.336Z,27.37
2022-08-26T12:09:26.048Z,26.79
2022-08-26T12:11:58.030Z,26.96
2022-08-26T12:14:27.654Z,28.94
2022-08-26T12:16:55.270Z,28.08
2022-08-26T12:19:25.253Z,28.79
2022-08-26T12:22:48.192Z,26.59
2022-08-26T12:25:24.269Z,27.22
2022-08-26T12:27:54.002Z,25.16
2022-08-26T12:30:24.741Z,26.41
2022-08-26T12:33:22.810Z,26.00
2022-08-26T12:35:56.275Z,26.99
2022-08-26T12:38:27.657Z,28.39
2022-08-26T12:40:57.072Z,27.33
2022-08-26T12:43:46.054Z,25.41
2022-08-26T12:46:18.310Z,27.72
2022-08-26T12:48:49.217Z,27.48
2022-08-26T12:51:27.473Z,27.09
2022-08-26T12:53:56.078Z,27.82
2022-08-26T12:56:27.783Z,29.06
2022-08-26T12:59:22.417Z,30.08
2022-08-26T13:01:52.730Z,27.07
2022-08-26T13:04:36.829Z,27.26
2022-08-26T13:07:26.989Z,27.46
2022-08-26T13:10:01.629Z,27.92
2022-08-26T13:12:34.573Z,29.25
2022-08-26T13:15:04.504Z,29.52
2022-08-26T13:17:32.322Z,29.56
2022-08-26T13:20:04.063Z,28.56
2022-08-26T13:22:32.497Z,30.94
2022-08-26T13:24:59.910Z,29.91
2022-08-26T13:27:28.129Z,29.27
2022-08-26T13:29:57.559Z,27.49
2022-08-26T13:32:27.465Z,28.32
2022-08-26T13:34:57.662Z,28.88
2022-08-26T13:37:35.003Z,28.65
2022-08-26T13:40:06.453Z,28.40
2022-08-26T13:42:34.533Z,28.85
2022-08-26T13:45:02.474Z,28.45
2022-08-26T13:47:32.745Z,27.64
2022-08-26T13:50:00.177Z,28.52
2022-08-26T13:52:30.242Z,29.13
2022-08-26T13:55:01.729Z,31.39
2022-08-26T13:57:30.647Z,30.22
2022-08-26T13:59:59.580Z,30.15
2022-08-26T14:02:28.273Z,29.19
2022-08-26T14:04:56.152Z,29.85
2022-08-26T14:07:23.962Z,28.91
2022-08-26T14:09:51.438Z,29.10
2022-08-26T14:12:19.504Z,30.38
2022-08-26T14:14:46.962Z,28.40
2022-08-26T14:17:19.462Z,29.31
2022-08-26T14:19:49.143Z,28.25
2022-08-26T14:22:18.844Z,28.54
2022-08-26T14:24:46.708Z,28.08
2022-08-26T14:27:14.983Z,28.84
2022-08-26T14:29:43.370Z,27.51
2022-08-26T14:32:18.895Z,28.51
2022-08-26T14:34:49.135Z,28.32
2022-08-26T14:37:18.092Z,28.59
2022-08-26T14:39:46.229Z,27.29
2022-08-26T14:42:16.836Z,26.53
2022-08-26T14:44:46.425Z,25.65
2022-08-26T14:47:14.100Z,24.81
2022-08-26T14:49:43.817Z,25.08
2022-08-26T14:52:11.634Z,24.04
2022-08-26T14:54:39.111Z,24.32
2022-08-26T14:57:09.268Z,24.25
2022-08-26T14:59:40.021Z,25.04
2022-08-26T15:02:11.488Z,23.97
2022-08-26T15:04:41.882Z,24.28
2022-08-26T15:07:09.628Z,23.31
2022-08-26T15:09:40.483Z,22.45
2022-08-26T15:12:10.046Z,26.93
2022-08-26T15:14:37.661Z,28.52
2022-08-26T15:17:06.545Z,27.89
2022-08-26T15:19:34.220Z,26.51
2022-08-26T15:22:01.626Z,25.41
2022-08-26T15:24:29.206Z,23.82
2022-08-26T15:26:56.963Z,23.85
2022-08-26T15:29:24.585Z,22.82
2022-08-26T15:31:57.215Z,21.40
2022-08-26T15:34:25.539Z,22.62
2022-08-26T15:36:52.946Z,21.91
2022-08-26T15:39:20.905Z,22.22
2022-08-26T15:41:48.744Z,19.81
2022-08-26T15:44:17.405Z,21.20
2022-08-26T15:46:45.099Z,21.50
2022-08-26T15:49:18.262Z,21.94
2022-08-26T15:51:48.286Z,21.27
2022-08-26T15:54:17.459Z,22.64
2022-08-26T15:56:47.912Z,25.74
2022-08-26T15:59:16.207Z,26.65
2022-08-26T16:01:43.729Z,25.41
2022-08-26T16:04:11.678Z,27.00
2022-08-26T16:06:41.252Z,28.03
2022-08-26T16:09:11.097Z,28.10
2022-08-26T16:11:38.912Z,30.03
2022-08-26T16:14:07.423Z,29.84
2022-08-26T16:16:39.494Z,31.58
2022-08-26T16:19:08.206Z,32.23
2022-08-26T16:21:36.364Z,32.11
2022-08-26T16:24:04.954Z,33.24
2022-08-26T16:26:35.153Z,35.63
2022-08-26T16:29:08.848Z,36.19
2022-08-26T16:31:38.483Z,36.28
2022-08-26T16:34:09.527Z,36.69
2022-08-26T16:36:38.960Z,38.27
2022-08-26T16:39:08.121Z,40.06
2022-08-26T16:41:36.220Z,39.98
2022-08-26T16:44:04.237Z,41.42
2022-08-26T16:46:31.884Z,42.25
2022-08-26T16:48:59.730Z,44.82
2022-08-26T16:51:28.340Z,44.14
2022-08-26T16:53:57.640Z,46.17
2022-08-26T16:56:33.749Z,49.19
2022-08-26T16:59:07.727Z,51.75
2022-08-26T17:01:35.743Z,49.18
2022-08-26T17:04:04.292Z,49.26
2022-08-26T17:06:31.806Z,53.15
2022-08-26T17:08:59.242Z,53.75
2022-08-26T17:11:27.086Z,53.86
2022-08-26T17:13:54.502Z,55.75
2022-08-26T17:16:26.360Z,54.71
2022-08-26T17:18:56.484Z,56.02
2022-08-26T17:21:24.024Z,56.31
2022-08-26T17:23:52.044Z,55.97
2022-08-26T17:26:20.077Z,56.06
2022-08-26T17:28:47.531Z,57.22
2022-08-26T17:31:15.010Z,57.19
2022-08-26T17:33:42.834Z,57.33
2022-08-26T17:36:10.819Z,57.53
2022-08-26T17:38:38.814Z,57.16
2022-08-26T17:41:11.018Z,58.90
2022-08-26T17:43:39.262Z,58.45
2022-08-26T17:46:09.570Z,59.64
2022-08-26T17:48:38.300Z,59.07
2022-08-26T17:51:11.390Z,59.92
2022-08-26T17:53:39.929Z,60.33
2022-08-26T17:56:13.139Z,59.39
2022-08-26T17:58:41.291Z,60.45
2022-08-26T18:01:18.963Z,59.91
2022-08-26T18:03:46.721Z,60.54
2022-08-26T18:06:14.719Z,59.72
2022-08-26T18:08:42.611Z,60.65
2022-08-26T18:11:12.868Z,60.15
2022-08-26T18:13:47.635Z,60.98
2022-08-26T18:16:17.720Z,62.66
2022-08-26T18:18:46.735Z,62.52
2022-08-26T18:21:18.038Z,62.90
2022-08-26T18:23:47.052Z,63.29
2022-08-26T18:26:19.701Z,63.90
2022-08-26T18:28:47.687Z,63.02
2022-08-26T18:31:15.628Z,63.25
2022-08-26T18:33:43.395Z,63.19
2022-08-26T18:36:26.795Z,62.87
2022-08-26T18:38:54.783Z,63.72
2022-08-26T18:41:24.591Z,63.47
2022-08-26T18:43:53.380Z,63.12
2022-08-26T18:46:25.169Z,64.29
2022-08-26T18:48:55.161Z,63.79
2022-08-26T18:51:24.193Z,63.47
2022-08-26T18:53:52.881Z,63.10
2022-08-26T18:56:20.745Z,63.73
2022-08-26T18:58:49.024Z,63.93
2022-08-26T19:01:17.897Z,64.18
2022-08-26T19:03:46.944Z,63.45
2022-08-26T19:06:17.337Z,64.07
2022-08-26T19:08:45.385Z,65.52
2022-08-26T19:11:31.439Z,65.67
2022-08-26T19:14:02.332Z,66.27
2022-08-26T19:16:31.244Z,67.13
2022-08-26T19:18:59.130Z,66.97
2022-08-26T19:21:26.776Z,66.54
2022-08-26T19:24:00.088Z,66.00
2022-08-26T19:26:28.813Z,68.65
2022-08-26T19:28:57.270Z,67.76
2022-08-26T19:31:25.141Z,68.56
2022-08-26T19:33:53.061Z,66.36
2022-08-26T19:36:24.216Z,66.50
2022-08-26T19:38:53.088Z,66.22
2022-08-26T19:41:36.659Z,66.49
2022-08-26T19:44:34.468Z,66.40
2022-08-26T19:47:03.845Z,66.83
2022-08-26T19:49:31.697Z,67.54
2022-08-26T19:51:59.241Z,68.59
2022-08-26T19:54:27.327Z,68.38
2022-08-26T19:56:54.788Z,67.39
2022-08-26T19:59:22.379Z,67.15
2022-08-26T20:01:52.974Z,66.62
2022-08-26T20:04:31.633Z,66.59
2022-08-26T20:07:01.025Z,67.66
2022-08-26T20:09:30.449Z,68.19
2022-08-26T20:11:58.865Z,68.32
2022-08-26T20:14:27.320Z,68.64
2022-08-26T20:16:54.724Z,67.64
2022-08-26T20:19:42.189Z,67.64
2022-08-26T20:22:09.771Z,66.74
2022-08-26T20:24:37.479Z,67.81
2022-08-26T20:27:08.002Z,67.94
2022-08-26T20:29:37.236Z,68.05
2022-08-26T20:32:08.054Z,67.42
2022-08-26T20:34:36.749Z,67.65
2022-08-26T20:37:05.923Z,68.07
2022-08-26T20:39:36.531Z,67.91
2022-08-26T20:42:04.584Z,67.64
2022-08-26T20:44:33.402Z,67.85
2022-08-26T20:47:01.224Z,68.47
2022-08-26T20:49:30.509Z,69.68
2022-08-26T20:52:02.708Z,69.70
2022-08-26T20:54:30.581Z,69.71
2022-08-26T20:56:58.885Z,70.63
2022-08-26T20:59:27.287Z,69.86
2022-08-26T21:01:55.298Z,69.90
2022-08-26T21:04:25.271Z,69.86
2022-08-26T21:06:54.634Z,70.29
2022-08-26T21:09:22.850Z,69.95
2022-08-26T21:11:51.070Z,70.57
2022-08-26T21:14:20.736Z,70.01
2022-08-26T21:16:48.253Z,70.50
2022-08-26T21:19:18.199Z,70.95
2022-08-26T21:21:47.905Z,71.00
2022-08-26T21:24:15.846Z,70.90
2022-08-26T21:26:43.632Z,70.84
2022-08-26T21:29:13.655Z,70.30
2022-08-26T21:31:46.127Z,70.38
2022-08-26T21:34:17.434Z,70.18
2022-08-26T21:36:46.208Z,70.10
2022-08-26T21:39:14.460Z,70.25
2022-08-26T21:41:43.482Z,69.71
2022-08-26T21:44:12.998Z,70.43
2022-08-26T21:46:41.076Z,71.24
2022-08-26T21:49:12.443Z,70.81
2022-08-26T21:51:43.833Z,70.65
2022-08-26T21:54:12.841Z,72.42
2022-08-26T21:56:44.764Z,71.79
2022-08-26T21:59:13.657Z,70.71
2022-08-26T22:01:41.549Z,71.80
2022-08-26T22:04:10.429Z,72.15
2022-08-26T22:06:48.311Z,70.70
2022-08-26T22:09:20.211Z,70.64
2022-08-26T22:11:47.803Z,70.25
2022-08-26T22:14:16.779Z,71.63
2022-08-26T22:16:50.110Z,72.03
2022-08-26T22:19:20.218Z,71.21
2022-08-26T22:21:50.889Z,71.55
2022-08-26T22:24:19.895Z,71.99
2022-08-26T22:26:48.659Z,71.83
2022-08-26T22:29:16.345Z,71.65
2022-08-26T22:31:43.875Z,72.19
2022-08-26T22:34:15.780Z,72.37
2022-08-26T22:36:48.466Z,71.99
2022-08-26T22:39:20.455Z,71.86
2022-08-26T22:41:48.928Z,72.07
2022-08-26T22:44:18.211Z,72.29
2022-08-26T22:46:45.994Z,72.82
2022-08-26T22:49:18.221Z,72.34
2022-08-26T22:51:46.883Z,72.81
2022-08-26T22:54:15.462Z,72.18
2022-08-26T22:56:44.798Z,72.33
2022-08-26T22:59:13.534Z,71.81
2022-08-26T23:01:43.163Z,72.12
2022-08-26T23:04:11.880Z,72.64
2022-08-26T23:06:41.976Z,73.04
2022-08-26T23:09:10.712Z,73.12
2022-08-26T23:11:42.150Z,73.14
2022-08-26T23:14:11.352Z,73.23
2022-08-26T23:16:43.392Z,73.72
2022-08-26T23:19:13.731Z,73.78
2022-08-26T23:21:41.514Z,73.41
2022-08-26T23:24:09.698Z,74.38
2022-08-26T23:26:38.728Z,73.91
2022-08-26T23:29:08.572Z,73.70
2022-08-26T23:31:38.165Z,73.62
2022-08-26T23:34:24.890Z,73.52
2022-08-26T23:36:52.933Z,73.74
2022-08-26T23:39:25.693Z,74.80
2022-08-26T23:41:53.173Z,75.04
2022-08-26T23:44:20.927Z,76.12
2022-08-26T23:46:48.780Z,76.42
2022-08-26T23:49:16.132Z,75.57
2022-08-26T23:52:02.156Z,74.59
2022-08-26T23:54:29.869Z,72.76
2022-08-26T23:56:57.343Z,74.42
2022-08-26T23:59:25.208Z,74.36
